sensor_id;sensor_type;location;lat;lon;timestamp;P1;durP1;ratioP1;P2;durP2;ratioP2
66800;SDS011;53703;50.326;19.122;2023-12-20T00:01:19;6.80;;;3.20;;
66800;SDS011;53703;50.326;19.122;2023-12-20T00:03:53;6.00;;;3.10;;
66800;SDS011;53703;50.326;19.122;2023-12-20T00:06:26;4.80;;;2.80;;
66800;SDS011;53703;50.326;19.122;2023-12-20T00:09:00;4.60;;;2.70;;
66800;SDS011;53703;50.326;19.122;2023-12-20T00:11:34;5.70;;;3.00;;
66800;SDS011;53703;50.326;19.122;2023-12-20T00:14:07;4.70;;;2.60;;
66800;SDS011;53703;50.326;19.122;2023-12-20T00:16:40;4.90;;;2.80;;
66800;SDS011;53703;50.326;19.122;2023-12-20T00:19:14;5.80;;;3.20;;
66800;SDS011;53703;50.326;19.122;2023-12-20T00:21:47;4.40;;;2.70;;
66800;SDS011;53703;50.326;19.122;2023-12-20T00:24:21;6.20;;;2.90;;
66800;SDS011;53703;50.326;19.122;2023-12-20T00:26:55;8.00;;;3.00;;
66800;SDS011;53703;50.326;19.122;2023-12-20T00:29:28;5.70;;;3.00;;
66800;SDS011;53703;50.326;19.122;2023-12-20T00:32:01;5.10;;;3.10;;
66800;SDS011;53703;50.326;19.122;2023-12-20T00:34:35;5.20;;;3.20;;
66800;SDS011;53703;50.326;19.122;2023-12-20T00:37:08;6.40;;;3.30;;
66800;SDS011;53703;50.326;19.122;2023-12-20T00:39:42;4.60;;;2.80;;
66800;SDS011;53703;50.326;19.122;2023-12-20T00:42:15;5.50;;;3.00;;
66800;SDS011;53703;50.326;19.122;2023-12-20T00:44:49;5.30;;;2.90;;
66800;SDS011;53703;50.326;19.122;2023-12-20T00:47:22;4.80;;;2.50;;
66800;SDS011;53703;50.326;19.122;2023-12-20T00:49:56;5.20;;;2.80;;
66800;SDS011;53703;50.326;19.122;2023-12-20T00:52:30;5.30;;;3.30;;
66800;SDS011;53703;50.326;19.122;2023-12-20T00:55:03;5.60;;;2.80;;
66800;SDS011;53703;50.326;19.122;2023-12-20T00:57:38;5.40;;;2.50;;
66800;SDS011;53703;50.326;19.122;2023-12-20T01:00:14;6.00;;;2.80;;
66800;SDS011;53703;50.326;19.122;2023-12-20T01:02:48;4.00;;;2.40;;
66800;SDS011;53703;50.326;19.122;2023-12-20T01:05:22;3.90;;;2.40;;
66800;SDS011;53703;50.326;19.122;2023-12-20T01:07:55;5.00;;;2.60;;
66800;SDS011;53703;50.326;19.122;2023-12-20T01:10:29;4.90;;;2.70;;
66800;SDS011;53703;50.326;19.122;2023-12-20T01:13:03;5.90;;;2.80;;
66800;SDS011;53703;50.326;19.122;2023-12-20T01:15:36;5.20;;;2.60;;
66800;SDS011;53703;50.326;19.122;2023-12-20T01:18:10;4.70;;;2.80;;
66800;SDS011;53703;50.326;19.122;2023-12-20T01:20:43;4.50;;;2.60;;
66800;SDS011;53703;50.326;19.122;2023-12-20T01:23:17;5.50;;;2.70;;
66800;SDS011;53703;50.326;19.122;2023-12-20T01:25:50;4.00;;;2.30;;
66800;SDS011;53703;50.326;19.122;2023-12-20T01:28:24;3.40;;;2.20;;
66800;SDS011;53703;50.326;19.122;2023-12-20T01:30:58;4.70;;;2.60;;
66800;SDS011;53703;50.326;19.122;2023-12-20T01:33:32;3.90;;;2.30;;
66800;SDS011;53703;50.326;19.122;2023-12-20T01:36:06;5.80;;;2.60;;
66800;SDS011;53703;50.326;19.122;2023-12-20T01:38:40;3.60;;;2.30;;
66800;SDS011;53703;50.326;19.122;2023-12-20T01:41:13;4.50;;;2.60;;
66800;SDS011;53703;50.326;19.122;2023-12-20T01:43:47;4.20;;;2.40;;
66800;SDS011;53703;50.326;19.122;2023-12-20T01:46:21;4.30;;;2.80;;
66800;SDS011;53703;50.326;19.122;2023-12-20T01:48:55;4.30;;;2.40;;
66800;SDS011;53703;50.326;19.122;2023-12-20T01:51:29;3.80;;;2.40;;
66800;SDS011;53703;50.326;19.122;2023-12-20T01:54:03;4.20;;;2.20;;
66800;SDS011;53703;50.326;19.122;2023-12-20T01:56:38;4.30;;;2.50;;
66800;SDS011;53703;50.326;19.122;2023-12-20T01:59:12;4.20;;;2.30;;
66800;SDS011;53703;50.326;19.122;2023-12-20T02:01:46;3.80;;;2.10;;
66800;SDS011;53703;50.326;19.122;2023-12-20T02:04:20;4.40;;;2.40;;
66800;SDS011;53703;50.326;19.122;2023-12-20T02:06:55;5.10;;;2.30;;
66800;SDS011;53703;50.326;19.122;2023-12-20T02:09:30;3.50;;;2.20;;
66800;SDS011;53703;50.326;19.122;2023-12-20T02:12:05;3.50;;;2.10;;
66800;SDS011;53703;50.326;19.122;2023-12-20T02:14:39;3.70;;;2.30;;
66800;SDS011;53703;50.326;19.122;2023-12-20T02:17:13;3.70;;;2.30;;
66800;SDS011;53703;50.326;19.122;2023-12-20T02:19:46;4.60;;;2.70;;
66800;SDS011;53703;50.326;19.122;2023-12-20T02:22:21;3.80;;;2.20;;
66800;SDS011;53703;50.326;19.122;2023-12-20T02:24:55;3.40;;;2.20;;
66800;SDS011;53703;50.326;19.122;2023-12-20T02:27:28;3.60;;;2.50;;
66800;SDS011;53703;50.326;19.122;2023-12-20T02:30:03;4.60;;;2.50;;
66800;SDS011;53703;50.326;19.122;2023-12-20T02:32:37;4.30;;;2.30;;
66800;SDS011;53703;50.326;19.122;2023-12-20T02:35:11;4.30;;;2.20;;
66800;SDS011;53703;50.326;19.122;2023-12-20T02:37:44;3.80;;;2.50;;
66800;SDS011;53703;50.326;19.122;2023-12-20T02:40:18;4.00;;;2.60;;
66800;SDS011;53703;50.326;19.122;2023-12-20T02:42:52;4.10;;;2.10;;
66800;SDS011;53703;50.326;19.122;2023-12-20T02:45:25;4.10;;;2.40;;
66800;SDS011;53703;50.326;19.122;2023-12-20T02:47:59;3.60;;;2.30;;
66800;SDS011;53703;50.326;19.122;2023-12-20T02:50:33;4.90;;;2.40;;
66800;SDS011;53703;50.326;19.122;2023-12-20T02:53:07;3.70;;;2.20;;
66800;SDS011;53703;50.326;19.122;2023-12-20T02:55:40;4.10;;;2.20;;
66800;SDS011;53703;50.326;19.122;2023-12-20T02:58:14;4.00;;;2.00;;
66800;SDS011;53703;50.326;19.122;2023-12-20T03:00:48;4.30;;;2.20;;
66800;SDS011;53703;50.326;19.122;2023-12-20T03:03:22;3.80;;;2.60;;
66800;SDS011;53703;50.326;19.122;2023-12-20T03:05:56;3.90;;;2.30;;
66800;SDS011;53703;50.326;19.122;2023-12-20T03:08:30;4.10;;;2.30;;
66800;SDS011;53703;50.326;19.122;2023-12-20T03:11:03;3.10;;;1.90;;
66800;SDS011;53703;50.326;19.122;2023-12-20T03:13:37;3.70;;;2.10;;
66800;SDS011;53703;50.326;19.122;2023-12-20T03:16:11;4.30;;;2.40;;
66800;SDS011;53703;50.326;19.122;2023-12-20T03:18:46;4.50;;;2.20;;
66800;SDS011;53703;50.326;19.122;2023-12-20T03:21:20;3.20;;;2.10;;
66800;SDS011;53703;50.326;19.122;2023-12-20T03:23:53;3.30;;;2.00;;
66800;SDS011;53703;50.326;19.122;2023-12-20T03:26:27;4.50;;;2.70;;
66800;SDS011;53703;50.326;19.122;2023-12-20T03:29:00;3.60;;;2.40;;
66800;SDS011;53703;50.326;19.122;2023-12-20T03:31:34;4.00;;;2.30;;
66800;SDS011;53703;50.326;19.122;2023-12-20T03:34:08;3.90;;;2.20;;
66800;SDS011;53703;50.326;19.122;2023-12-20T03:36:42;3.80;;;2.50;;
66800;SDS011;53703;50.326;19.122;2023-12-20T03:39:18;3.80;;;2.20;;
66800;SDS011;53703;50.326;19.122;2023-12-20T03:41:52;3.60;;;2.20;;
66800;SDS011;53703;50.326;19.122;2023-12-20T03:44:25;3.80;;;2.10;;
66800;SDS011;53703;50.326;19.122;2023-12-20T03:46:59;4.40;;;2.40;;
66800;SDS011;53703;50.326;19.122;2023-12-20T03:49:32;4.80;;;2.40;;
66800;SDS011;53703;50.326;19.122;2023-12-20T03:52:08;3.50;;;2.40;;
66800;SDS011;53703;50.326;19.122;2023-12-20T03:54:41;3.70;;;2.00;;
66800;SDS011;53703;50.326;19.122;2023-12-20T03:57:15;4.10;;;2.50;;
66800;SDS011;53703;50.326;19.122;2023-12-20T03:59:48;3.70;;;2.30;;
66800;SDS011;53703;50.326;19.122;2023-12-20T04:02:22;4.00;;;2.30;;
66800;SDS011;53703;50.326;19.122;2023-12-20T04:04:55;4.30;;;2.30;;
66800;SDS011;53703;50.326;19.122;2023-12-20T04:07:28;4.60;;;2.30;;
66800;SDS011;53703;50.326;19.122;2023-12-20T04:10:02;3.60;;;2.20;;
66800;SDS011;53703;50.326;19.122;2023-12-20T04:12:36;4.00;;;2.40;;
66800;SDS011;53703;50.326;19.122;2023-12-20T04:15:10;3.80;;;2.40;;
66800;SDS011;53703;50.326;19.122;2023-12-20T04:17:44;4.00;;;2.30;;
66800;SDS011;53703;50.326;19.122;2023-12-20T04:20:18;3.90;;;2.50;;
66800;SDS011;53703;50.326;19.122;2023-12-20T04:22:51;7.00;;;2.50;;
66800;SDS011;53703;50.326;19.122;2023-12-20T04:25:25;3.60;;;2.30;;
66800;SDS011;53703;50.326;19.122;2023-12-20T04:27:58;4.00;;;2.30;;
66800;SDS011;53703;50.326;19.122;2023-12-20T04:30:32;3.90;;;2.40;;
66800;SDS011;53703;50.326;19.122;2023-12-20T04:33:06;4.10;;;2.50;;
66800;SDS011;53703;50.326;19.122;2023-12-20T04:35:39;3.70;;;2.50;;
66800;SDS011;53703;50.326;19.122;2023-12-20T04:38:13;2.90;;;1.90;;
66800;SDS011;53703;50.326;19.122;2023-12-20T04:40:47;5.50;;;2.90;;
66800;SDS011;53703;50.326;19.122;2023-12-20T04:43:20;4.50;;;2.30;;
66800;SDS011;53703;50.326;19.122;2023-12-20T04:45:54;4.20;;;2.60;;
66800;SDS011;53703;50.326;19.122;2023-12-20T04:48:27;4.20;;;2.40;;
66800;SDS011;53703;50.326;19.122;2023-12-20T04:51:01;5.20;;;2.60;;
66800;SDS011;53703;50.326;19.122;2023-12-20T04:53:35;3.10;;;2.20;;
66800;SDS011;53703;50.326;19.122;2023-12-20T04:56:08;3.40;;;2.40;;
66800;SDS011;53703;50.326;19.122;2023-12-20T04:58:43;4.20;;;2.60;;
66800;SDS011;53703;50.326;19.122;2023-12-20T05:01:17;4.50;;;2.80;;
66800;SDS011;53703;50.326;19.122;2023-12-20T05:03:51;4.90;;;2.60;;
66800;SDS011;53703;50.326;19.122;2023-12-20T05:06:25;3.70;;;2.60;;
66800;SDS011;53703;50.326;19.122;2023-12-20T05:08:58;4.90;;;3.00;;
66800;SDS011;53703;50.326;19.122;2023-12-20T05:11:32;5.50;;;2.90;;
66800;SDS011;53703;50.326;19.122;2023-12-20T05:14:06;6.50;;;2.70;;
66800;SDS011;53703;50.326;19.122;2023-12-20T05:16:39;4.60;;;2.70;;
66800;SDS011;53703;50.326;19.122;2023-12-20T05:19:12;5.00;;;2.60;;
66800;SDS011;53703;50.326;19.122;2023-12-20T05:21:46;4.80;;;2.60;;
66800;SDS011;53703;50.326;19.122;2023-12-20T05:24:20;3.80;;;2.40;;
66800;SDS011;53703;50.326;19.122;2023-12-20T05:26:53;3.50;;;2.60;;
66800;SDS011;53703;50.326;19.122;2023-12-20T05:29:30;5.20;;;3.10;;
66800;SDS011;53703;50.326;19.122;2023-12-20T05:32:04;4.90;;;3.00;;
66800;SDS011;53703;50.326;19.122;2023-12-20T05:34:38;3.70;;;2.20;;
66800;SDS011;53703;50.326;19.122;2023-12-20T05:37:12;4.90;;;2.80;;
66800;SDS011;53703;50.326;19.122;2023-12-20T05:39:45;5.30;;;2.90;;
66800;SDS011;53703;50.326;19.122;2023-12-20T05:42:19;5.30;;;3.00;;
66800;SDS011;53703;50.326;19.122;2023-12-20T05:44:52;5.20;;;2.70;;
66800;SDS011;53703;50.326;19.122;2023-12-20T05:47:28;4.20;;;2.70;;
66800;SDS011;53703;50.326;19.122;2023-12-20T05:50:02;5.30;;;2.90;;
66800;SDS011;53703;50.326;19.122;2023-12-20T05:52:36;6.40;;;2.90;;
66800;SDS011;53703;50.326;19.122;2023-12-20T05:55:10;5.60;;;2.90;;
66800;SDS011;53703;50.326;19.122;2023-12-20T05:57:44;6.40;;;3.10;;
66800;SDS011;53703;50.326;19.122;2023-12-20T06:00:19;6.20;;;2.80;;
66800;SDS011;53703;50.326;19.122;2023-12-20T06:02:52;4.70;;;3.00;;
66800;SDS011;53703;50.326;19.122;2023-12-20T06:05:26;3.70;;;2.60;;
66800;SDS011;53703;50.326;19.122;2023-12-20T06:07:59;6.20;;;3.20;;
66800;SDS011;53703;50.326;19.122;2023-12-20T06:10:33;5.00;;;2.90;;
66800;SDS011;53703;50.326;19.122;2023-12-20T06:13:07;4.90;;;2.80;;
66800;SDS011;53703;50.326;19.122;2023-12-20T06:15:40;4.30;;;2.90;;
66800;SDS011;53703;50.326;19.122;2023-12-20T06:18:14;6.70;;;3.00;;
66800;SDS011;53703;50.326;19.122;2023-12-20T06:20:48;4.60;;;2.80;;
66800;SDS011;53703;50.326;19.122;2023-12-20T06:23:21;4.60;;;2.80;;
66800;SDS011;53703;50.326;19.122;2023-12-20T06:25:58;4.40;;;3.00;;
66800;SDS011;53703;50.326;19.122;2023-12-20T06:28:32;5.20;;;2.90;;
66800;SDS011;53703;50.326;19.122;2023-12-20T06:31:07;6.50;;;2.80;;
66800;SDS011;53703;50.326;19.122;2023-12-20T06:33:40;5.60;;;3.00;;
66800;SDS011;53703;50.326;19.122;2023-12-20T06:36:16;4.40;;;2.90;;
66800;SDS011;53703;50.326;19.122;2023-12-20T06:38:50;5.10;;;3.20;;
66800;SDS011;53703;50.326;19.122;2023-12-20T06:41:24;5.40;;;3.00;;
66800;SDS011;53703;50.326;19.122;2023-12-20T06:43:57;5.50;;;3.20;;
66800;SDS011;53703;50.326;19.122;2023-12-20T06:46:31;7.50;;;3.40;;
66800;SDS011;53703;50.326;19.122;2023-12-20T06:49:04;4.30;;;2.90;;
66800;SDS011;53703;50.326;19.122;2023-12-20T06:51:38;4.90;;;3.00;;
66800;SDS011;53703;50.326;19.122;2023-12-20T06:54:12;6.40;;;3.40;;
66800;SDS011;53703;50.326;19.122;2023-12-20T06:56:45;5.70;;;3.20;;
66800;SDS011;53703;50.326;19.122;2023-12-20T06:59:19;5.20;;;3.10;;
66800;SDS011;53703;50.326;19.122;2023-12-20T07:01:52;5.20;;;3.00;;
66800;SDS011;53703;50.326;19.122;2023-12-20T07:04:26;4.90;;;2.90;;
66800;SDS011;53703;50.326;19.122;2023-12-20T07:07:00;5.60;;;3.40;;
66800;SDS011;53703;50.326;19.122;2023-12-20T07:09:34;5.00;;;3.00;;
66800;SDS011;53703;50.326;19.122;2023-12-20T07:12:07;4.90;;;3.40;;
66800;SDS011;53703;50.326;19.122;2023-12-20T07:14:41;4.90;;;3.10;;
66800;SDS011;53703;50.326;19.122;2023-12-20T07:17:14;4.50;;;3.00;;
66800;SDS011;53703;50.326;19.122;2023-12-20T07:19:48;5.40;;;3.10;;
66800;SDS011;53703;50.326;19.122;2023-12-20T07:22:21;7.30;;;3.30;;
66800;SDS011;53703;50.326;19.122;2023-12-20T07:24:55;5.40;;;3.10;;
66800;SDS011;53703;50.326;19.122;2023-12-20T07:27:29;5.10;;;3.10;;
66800;SDS011;53703;50.326;19.122;2023-12-20T07:30:02;6.10;;;3.00;;
66800;SDS011;53703;50.326;19.122;2023-12-20T07:32:37;5.10;;;3.30;;
66800;SDS011;53703;50.326;19.122;2023-12-20T07:35:11;5.60;;;3.40;;
66800;SDS011;53703;50.326;19.122;2023-12-20T07:37:44;5.30;;;3.10;;
66800;SDS011;53703;50.326;19.122;2023-12-20T07:40:18;5.60;;;3.20;;
66800;SDS011;53703;50.326;19.122;2023-12-20T07:42:52;5.10;;;3.00;;
66800;SDS011;53703;50.326;19.122;2023-12-20T07:45:25;5.70;;;3.30;;
66800;SDS011;53703;50.326;19.122;2023-12-20T07:47:59;5.90;;;3.50;;
66800;SDS011;53703;50.326;19.122;2023-12-20T07:50:33;5.40;;;3.30;;
66800;SDS011;53703;50.326;19.122;2023-12-20T07:53:07;5.10;;;3.10;;
66800;SDS011;53703;50.326;19.122;2023-12-20T07:55:42;10.60;;;3.90;;
66800;SDS011;53703;50.326;19.122;2023-12-20T07:58:15;6.60;;;3.60;;
66800;SDS011;53703;50.326;19.122;2023-12-20T08:00:49;5.40;;;3.10;;
66800;SDS011;53703;50.326;19.122;2023-12-20T08:03:22;7.80;;;5.30;;
66800;SDS011;53703;50.326;19.122;2023-12-20T08:05:56;7.80;;;4.40;;
66800;SDS011;53703;50.326;19.122;2023-12-20T08:08:30;10.60;;;6.40;;
66800;SDS011;53703;50.326;19.122;2023-12-20T08:11:04;7.80;;;5.20;;
66800;SDS011;53703;50.326;19.122;2023-12-20T08:13:37;9.30;;;5.20;;
66800;SDS011;53703;50.326;19.122;2023-12-20T08:16:11;7.80;;;4.80;;
66800;SDS011;53703;50.326;19.122;2023-12-20T08:18:46;8.30;;;4.60;;
66800;SDS011;53703;50.326;19.122;2023-12-20T08:21:20;6.40;;;4.00;;
66800;SDS011;53703;50.326;19.122;2023-12-20T08:23:53;7.00;;;4.20;;
66800;SDS011;53703;50.326;19.122;2023-12-20T08:26:28;8.50;;;4.40;;
66800;SDS011;53703;50.326;19.122;2023-12-20T08:29:01;9.80;;;4.70;;
66800;SDS011;53703;50.326;19.122;2023-12-20T08:31:35;7.50;;;4.40;;
66800;SDS011;53703;50.326;19.122;2023-12-20T08:34:08;9.20;;;4.20;;
66800;SDS011;53703;50.326;19.122;2023-12-20T08:36:44;6.70;;;4.10;;
66800;SDS011;53703;50.326;19.122;2023-12-20T08:39:17;7.50;;;4.50;;
66800;SDS011;53703;50.326;19.122;2023-12-20T08:41:51;6.50;;;4.20;;
66800;SDS011;53703;50.326;19.122;2023-12-20T08:44:24;8.40;;;4.50;;
66800;SDS011;53703;50.326;19.122;2023-12-20T08:46:58;7.50;;;4.10;;
66800;SDS011;53703;50.326;19.122;2023-12-20T08:49:31;7.00;;;4.00;;
66800;SDS011;53703;50.326;19.122;2023-12-20T08:52:06;6.40;;;3.90;;
66800;SDS011;53703;50.326;19.122;2023-12-20T08:54:39;6.70;;;4.10;;
66800;SDS011;53703;50.326;19.122;2023-12-20T08:57:15;6.60;;;4.00;;
66800;SDS011;53703;50.326;19.122;2023-12-20T08:59:48;6.60;;;4.10;;
66800;SDS011;53703;50.326;19.122;2023-12-20T09:02:21;8.90;;;4.90;;
66800;SDS011;53703;50.326;19.122;2023-12-20T09:04:56;7.30;;;4.70;;
66800;SDS011;53703;50.326;19.122;2023-12-20T09:07:29;8.40;;;4.90;;
66800;SDS011;53703;50.326;19.122;2023-12-20T09:10:03;7.70;;;4.50;;
66800;SDS011;53703;50.326;19.122;2023-12-20T09:12:37;10.90;;;5.10;;
66800;SDS011;53703;50.326;19.122;2023-12-20T09:15:11;7.80;;;4.60;;
66800;SDS011;53703;50.326;19.122;2023-12-20T09:17:45;9.10;;;4.90;;
66800;SDS011;53703;50.326;19.122;2023-12-20T09:20:19;8.90;;;5.20;;
66800;SDS011;53703;50.326;19.122;2023-12-20T09:22:54;8.50;;;4.40;;
66800;SDS011;53703;50.326;19.122;2023-12-20T09:25:28;8.40;;;4.80;;
66800;SDS011;53703;50.326;19.122;2023-12-20T09:28:01;6.40;;;4.50;;
66800;SDS011;53703;50.326;19.122;2023-12-20T09:30:35;10.10;;;4.50;;
66800;SDS011;53703;50.326;19.122;2023-12-20T09:33:11;9.50;;;4.80;;
66800;SDS011;53703;50.326;19.122;2023-12-20T09:35:45;7.40;;;4.50;;
66800;SDS011;53703;50.326;19.122;2023-12-20T09:38:18;8.90;;;4.40;;
66800;SDS011;53703;50.326;19.122;2023-12-20T09:40:53;8.50;;;4.80;;
66800;SDS011;53703;50.326;19.122;2023-12-20T09:43:27;7.60;;;4.60;;
66800;SDS011;53703;50.326;19.122;2023-12-20T09:46:01;7.20;;;4.50;;
66800;SDS011;53703;50.326;19.122;2023-12-20T09:48:39;8.30;;;4.80;;
66800;SDS011;53703;50.326;19.122;2023-12-20T09:51:17;10.20;;;5.50;;
66800;SDS011;53703;50.326;19.122;2023-12-20T09:53:51;7.90;;;4.50;;
66800;SDS011;53703;50.326;19.122;2023-12-20T09:56:28;8.40;;;5.20;;
66800;SDS011;53703;50.326;19.122;2023-12-20T09:59:01;8.40;;;5.00;;
66800;SDS011;53703;50.326;19.122;2023-12-20T10:01:35;11.30;;;5.30;;
66800;SDS011;53703;50.326;19.122;2023-12-20T10:04:11;7.00;;;4.60;;
66800;SDS011;53703;50.326;19.122;2023-12-20T10:07:03;10.70;;;5.00;;
66800;SDS011;53703;50.326;19.122;2023-12-20T10:09:37;9.40;;;4.80;;
66800;SDS011;53703;50.326;19.122;2023-12-20T10:12:12;9.00;;;4.60;;
66800;SDS011;53703;50.326;19.122;2023-12-20T10:14:46;9.00;;;4.60;;
66800;SDS011;53703;50.326;19.122;2023-12-20T10:17:19;7.80;;;4.50;;
66800;SDS011;53703;50.326;19.122;2023-12-20T10:19:55;11.10;;;5.00;;
66800;SDS011;53703;50.326;19.122;2023-12-20T10:22:30;9.60;;;5.10;;
66800;SDS011;53703;50.326;19.122;2023-12-20T10:25:04;8.60;;;4.60;;
66800;SDS011;53703;50.326;19.122;2023-12-20T10:27:39;8.60;;;4.50;;
66800;SDS011;53703;50.326;19.122;2023-12-20T10:30:14;8.00;;;4.50;;
66800;SDS011;53703;50.326;19.122;2023-12-20T10:32:47;7.00;;;4.20;;
66800;SDS011;53703;50.326;19.122;2023-12-20T10:35:21;8.80;;;4.70;;
66800;SDS011;53703;50.326;19.122;2023-12-20T10:37:57;8.10;;;4.70;;
66800;SDS011;53703;50.326;19.122;2023-12-20T10:40:35;7.50;;;4.30;;
66800;SDS011;53703;50.326;19.122;2023-12-20T10:43:09;8.30;;;4.50;;
66800;SDS011;53703;50.326;19.122;2023-12-20T10:45:44;8.50;;;4.40;;
66800;SDS011;53703;50.326;19.122;2023-12-20T10:48:17;8.30;;;4.20;;
66800;SDS011;53703;50.326;19.122;2023-12-20T10:50:53;7.80;;;4.50;;
66800;SDS011;53703;50.326;19.122;2023-12-20T10:53:29;9.20;;;5.20;;
66800;SDS011;53703;50.326;19.122;2023-12-20T10:56:05;7.40;;;4.60;;
66800;SDS011;53703;50.326;19.122;2023-12-20T10:58:40;7.80;;;4.20;;
66800;SDS011;53703;50.326;19.122;2023-12-20T11:01:16;6.80;;;4.50;;
66800;SDS011;53703;50.326;19.122;2023-12-20T11:03:52;9.40;;;5.10;;
66800;SDS011;53703;50.326;19.122;2023-12-20T11:06:32;9.30;;;4.50;;
66800;SDS011;53703;50.326;19.122;2023-12-20T11:09:14;7.70;;;4.30;;
66800;SDS011;53703;50.326;19.122;2023-12-20T11:12:04;7.00;;;4.10;;
66800;SDS011;53703;50.326;19.122;2023-12-20T11:14:50;6.90;;;4.40;;
66800;SDS011;53703;50.326;19.122;2023-12-20T11:17:26;9.40;;;4.70;;
66800;SDS011;53703;50.326;19.122;2023-12-20T11:20:10;7.30;;;4.20;;
66800;SDS011;53703;50.326;19.122;2023-12-20T11:22:54;7.10;;;4.60;;
66800;SDS011;53703;50.326;19.122;2023-12-20T11:25:27;8.10;;;4.20;;
66800;SDS011;53703;50.326;19.122;2023-12-20T11:28:11;8.90;;;4.40;;
66800;SDS011;53703;50.326;19.122;2023-12-20T11:30:49;7.60;;;4.50;;
66800;SDS011;53703;50.326;19.122;2023-12-20T11:33:25;9.10;;;4.40;;
66800;SDS011;53703;50.326;19.122;2023-12-20T11:36:01;9.30;;;4.40;;
66800;SDS011;53703;50.326;19.122;2023-12-20T11:38:38;8.00;;;4.50;;
66800;SDS011;53703;50.326;19.122;2023-12-20T11:41:23;7.80;;;4.30;;
66800;SDS011;53703;50.326;19.122;2023-12-20T11:43:57;15.40;;;4.40;;
66800;SDS011;53703;50.326;19.122;2023-12-20T11:46:32;7.90;;;4.10;;
66800;SDS011;53703;50.326;19.122;2023-12-20T11:49:06;8.50;;;4.10;;
66800;SDS011;53703;50.326;19.122;2023-12-20T11:51:43;6.90;;;4.40;;
66800;SDS011;53703;50.326;19.122;2023-12-20T11:54:17;10.00;;;5.10;;
66800;SDS011;53703;50.326;19.122;2023-12-20T11:56:50;10.40;;;4.70;;
66800;SDS011;53703;50.326;19.122;2023-12-20T11:59:24;8.20;;;4.50;;
66800;SDS011;53703;50.326;19.122;2023-12-20T12:01:58;9.00;;;4.50;;
66800;SDS011;53703;50.326;19.122;2023-12-20T12:04:32;10.70;;;4.70;;
66800;SDS011;53703;50.326;19.122;2023-12-20T12:07:06;9.00;;;4.80;;
66800;SDS011;53703;50.326;19.122;2023-12-20T12:09:40;8.10;;;4.60;;
66800;SDS011;53703;50.326;19.122;2023-12-20T12:12:14;8.20;;;4.20;;
66800;SDS011;53703;50.326;19.122;2023-12-20T12:14:50;8.00;;;4.50;;
66800;SDS011;53703;50.326;19.122;2023-12-20T12:17:23;8.60;;;4.50;;
66800;SDS011;53703;50.326;19.122;2023-12-20T12:20:05;7.60;;;4.10;;
66800;SDS011;53703;50.326;19.122;2023-12-20T12:22:43;8.10;;;4.00;;
66800;SDS011;53703;50.326;19.122;2023-12-20T12:25:18;8.80;;;4.50;;
66800;SDS011;53703;50.326;19.122;2023-12-20T12:27:54;8.20;;;4.70;;
66800;SDS011;53703;50.326;19.122;2023-12-20T12:30:28;8.10;;;4.50;;
66800;SDS011;53703;50.326;19.122;2023-12-20T12:33:11;7.60;;;4.80;;
66800;SDS011;53703;50.326;19.122;2023-12-20T12:35:47;9.40;;;4.50;;
66800;SDS011;53703;50.326;19.122;2023-12-20T12:38:22;8.00;;;4.10;;
66800;SDS011;53703;50.326;19.122;2023-12-20T12:40:57;7.80;;;4.20;;
66800;SDS011;53703;50.326;19.122;2023-12-20T12:43:34;7.00;;;4.00;;
66800;SDS011;53703;50.326;19.122;2023-12-20T12:46:07;7.50;;;3.90;;
66800;SDS011;53703;50.326;19.122;2023-12-20T12:48:42;6.50;;;4.00;;
66800;SDS011;53703;50.326;19.122;2023-12-20T12:51:22;7.20;;;4.20;;
66800;SDS011;53703;50.326;19.122;2023-12-20T12:53:56;6.90;;;3.90;;
66800;SDS011;53703;50.326;19.122;2023-12-20T12:56:30;8.10;;;4.10;;
66800;SDS011;53703;50.326;19.122;2023-12-20T12:59:04;7.30;;;4.30;;
66800;SDS011;53703;50.326;19.122;2023-12-20T13:01:41;7.10;;;4.50;;
66800;SDS011;53703;50.326;19.122;2023-12-20T13:04:18;11.20;;;6.50;;
66800;SDS011;53703;50.326;19.122;2023-12-20T13:07:00;9.50;;;5.30;;
66800;SDS011;53703;50.326;19.122;2023-12-20T13:09:35;11.70;;;4.80;;
66800;SDS011;53703;50.326;19.122;2023-12-20T13:12:09;7.80;;;4.70;;
66800;SDS011;53703;50.326;19.122;2023-12-20T13:14:46;7.00;;;4.40;;
66800;SDS011;53703;50.326;19.122;2023-12-20T13:17:20;7.80;;;4.80;;
66800;SDS011;53703;50.326;19.122;2023-12-20T13:19:54;7.70;;;4.20;;
66800;SDS011;53703;50.326;19.122;2023-12-20T13:22:28;10.20;;;4.70;;
66800;SDS011;53703;50.326;19.122;2023-12-20T13:25:07;7.70;;;4.90;;
66800;SDS011;53703;50.326;19.122;2023-12-20T13:27:45;7.50;;;4.40;;
66800;SDS011;53703;50.326;19.122;2023-12-20T13:30:19;8.40;;;4.50;;
66800;SDS011;53703;50.326;19.122;2023-12-20T13:32:56;7.60;;;4.40;;
66800;SDS011;53703;50.326;19.122;2023-12-20T13:35:30;8.20;;;4.30;;
66800;SDS011;53703;50.326;19.122;2023-12-20T13:38:10;9.30;;;4.70;;
66800;SDS011;53703;50.326;19.122;2023-12-20T13:40:46;7.10;;;4.20;;
66800;SDS011;53703;50.326;19.122;2023-12-20T13:43:24;10.50;;;4.60;;
66800;SDS011;53703;50.326;19.122;2023-12-20T13:46:00;8.10;;;4.40;;
66800;SDS011;53703;50.326;19.122;2023-12-20T13:48:34;8.30;;;4.30;;
66800;SDS011;53703;50.326;19.122;2023-12-20T13:51:08;7.80;;;4.50;;
66800;SDS011;53703;50.326;19.122;2023-12-20T13:53:42;9.30;;;4.90;;
66800;SDS011;53703;50.326;19.122;2023-12-20T13:56:21;6.70;;;4.50;;
66800;SDS011;53703;50.326;19.122;2023-12-20T13:58:55;9.70;;;5.10;;
66800;SDS011;53703;50.326;19.122;2023-12-20T14:01:30;8.70;;;4.20;;
66800;SDS011;53703;50.326;19.122;2023-12-20T14:04:06;8.90;;;4.60;;
66800;SDS011;53703;50.326;19.122;2023-12-20T14:07:02;8.20;;;4.70;;
66800;SDS011;53703;50.326;19.122;2023-12-20T14:09:36;7.00;;;4.50;;
66800;SDS011;53703;50.326;19.122;2023-12-20T14:12:20;8.80;;;4.50;;
66800;SDS011;53703;50.326;19.122;2023-12-20T14:14:54;8.90;;;4.60;;
66800;SDS011;53703;50.326;19.122;2023-12-20T14:17:29;9.00;;;4.80;;
66800;SDS011;53703;50.326;19.122;2023-12-20T14:20:03;9.70;;;4.60;;
66800;SDS011;53703;50.326;19.122;2023-12-20T14:22:41;10.10;;;4.50;;
66800;SDS011;53703;50.326;19.122;2023-12-20T14:25:15;10.20;;;5.40;;
66800;SDS011;53703;50.326;19.122;2023-12-20T14:27:49;10.50;;;4.90;;
66800;SDS011;53703;50.326;19.122;2023-12-20T14:30:23;7.90;;;4.80;;
66800;SDS011;53703;50.326;19.122;2023-12-20T14:33:02;11.60;;;5.00;;
66800;SDS011;53703;50.326;19.122;2023-12-20T14:35:36;10.70;;;5.70;;
66800;SDS011;53703;50.326;19.122;2023-12-20T14:38:15;10.90;;;5.00;;
66800;SDS011;53703;50.326;19.122;2023-12-20T14:40:51;7.90;;;5.30;;
66800;SDS011;53703;50.326;19.122;2023-12-20T14:43:25;9.80;;;5.10;;
66800;SDS011;53703;50.326;19.122;2023-12-20T14:45:59;9.30;;;4.80;;
66800;SDS011;53703;50.326;19.122;2023-12-20T14:48:34;8.80;;;5.30;;
66800;SDS011;53703;50.326;19.122;2023-12-20T14:51:07;10.30;;;5.00;;
66800;SDS011;53703;50.326;19.122;2023-12-20T14:53:42;12.30;;;4.90;;
66800;SDS011;53703;50.326;19.122;2023-12-20T14:56:18;12.30;;;5.40;;
66800;SDS011;53703;50.326;19.122;2023-12-20T14:59:00;11.10;;;5.60;;
66800;SDS011;53703;50.326;19.122;2023-12-20T15:01:33;12.40;;;5.30;;
66800;SDS011;53703;50.326;19.122;2023-12-20T15:04:07;10.20;;;5.20;;
66800;SDS011;53703;50.326;19.122;2023-12-20T15:06:44;8.70;;;5.50;;
66800;SDS011;53703;50.326;19.122;2023-12-20T15:09:17;12.50;;;5.60;;
66800;SDS011;53703;50.326;19.122;2023-12-20T15:11:51;12.00;;;6.10;;
66800;SDS011;53703;50.326;19.122;2023-12-20T15:14:25;12.70;;;6.20;;
66800;SDS011;53703;50.326;19.122;2023-12-20T15:16:59;19.10;;;8.20;;